TSP Talk
logout   logout
Contact Us | Logout
     
January 22, 2017, 9:16 am (ET / EDT)
TSP Talk Market Comments TSP AutoTracker Premiums Site Map TSP Funds Forum Returns

                 
Tracker Main Menu | Tracker Member Menu | My IFT Records | How to Get Started | Email Updates
                 

Members ranking and current allocation as of: 2017-01-20 (COB)

Press Go back to the previous page   

View a specific date "yyyy-mm-dd"

Underlined column headings can be sorted
Rank Username YTD Returns MTD Returns Start Date
1 bjean 3.64 % 3.64 % 2017-01-01
2 crommie 3.34 % 3.34 % 2017-01-01
3 aeroconfigs 2.49 % 2.49 % 2017-01-01
4 Cruser 2.34 % 2.34 % 2017-01-01
5 Skorp64 2.34 % 2.34 % 2017-01-01
6 prisonguard224 2.29 % 2.29 % 2017-01-01
7 BigJohn 2.25 % 2.25 % 2017-01-01
8 nightsters 2.20 % 2.20 % 2017-01-01
9 goose 2.18 % 2.18 % 2017-01-01
10 klaron 2.18 % 2.18 % 2017-01-01
11 Lester130 2.18 % 2.18 % 2017-01-01
12 LongShot 2.15 % 2.15 % 2017-01-01
13 judochop 2.12 % 2.12 % 2017-01-01
14 I-fund 2.12 % 2.12 % 2017-01-01
15 LMBF1_C>S 2.12 % 2.12 % 2017-01-01
16 LMBF1_Day 2.12 % 2.12 % 2017-01-01
17 LMBF1_SIM 2.12 % 2.12 % 2017-01-01
18 texcc 2.12 % 2.12 % 2017-01-01
19 crispy 2.12 % 2.12 % 2017-01-01
20 tom1tom1 2.12 % 2.12 % 2017-01-01
21 nightlite 2.12 % ** 2.12 % 2017-01-01
22 jrutherford2 2.12 % ** 2.12 % 2017-01-01
23 malyla 2.12 % ** 2.12 % 2017-01-01
24 DCKevin 2.12 % ** 2.12 % 2017-01-01
25 2GodBtheGLORY 2.12 % ** 2.12 % 2017-01-01
26 BearTrap 2.12 % ** 2.12 % 2017-01-01
27 jajo1554 2.12 % ** 2.12 % 2017-01-01
28 Kahuna6969 2.12 % ** 2.12 % 2017-01-01
29 SavyNeal 2.12 % ** 2.12 % 2017-01-01
30 Sunnyday 2.12 % ** 2.12 % 2017-01-01
31 Shawhardy 2.12 % ** 2.12 % 2017-01-01
32 MoneyTalks 2.11 % 2.11 % 2017-01-01
33 FAB1 2.10 % 2.10 % 2017-01-01
34 BArREttLEEMAKINIT 2.04 % 2.04 % 2017-01-01
35 les2l8 2.00 % 2.00 % 2017-01-01
36 retire15 1.99 % 1.99 % 2017-01-01
37 rchurchwell 1.98 % 1.98 % 2017-01-01
38 Birchtree 1.96 % ** 1.96 % 2017-01-01
39 RV7 1.91 % 1.91 % 2017-01-01
40 meyersj 1.89 % 1.89 % 2017-01-01
41 Roddhsi 1.88 % 1.88 % 2017-01-01
42 Tailgate 1.88 % 1.88 % 2017-01-01
43 Boxholder 1.87 % 1.87 % 2017-01-01
44 mellowmoon 1.86 % 1.86 % 2017-01-01
45 Rummy1958 1.86 % 1.86 % 2017-01-01
46 tspintel 1.86 % 1.86 % 2017-01-01
47 talking2jets 1.86 % 1.86 % 2017-01-01
48 Butters 1.85 % 1.85 % 2017-01-01
49 lbeeba8862 1.83 % ** 1.83 % 2017-01-01
50 robertbr1963 1.83 % ** 1.83 % 2017-01-01
Rank Username YTD Returns MTD Returns Start Date
51 soupydoom 1.81 % 1.81 % 2017-01-01
52 adamo 1.80 % 1.80 % 2017-01-01
53 kras 1.79 % 1.79 % 2017-01-01
54 bdmkg 1.77 % 1.77 % 2017-01-01
55 jnchandrew 1.77 % 1.77 % 2017-01-01
56 RobinHood 1.77 % 1.77 % 2017-01-01
57 u.s.dan 1.77 % 1.77 % 2017-01-01
58 dunwichman 1.76 % ** 1.76 % 2017-01-01
59 Jrfich 1.75 % 1.75 % 2017-01-01
60 ravensfan 1.74 % 1.74 % 2017-01-01
61 Sports_Night 1.74 % ** 1.74 % 2017-01-01
62 sonyctx 1.74 % ** 1.74 % 2017-01-01
63 oOSupremeOo 1.73 % 1.73 % 2017-01-01
64 pread 1.72 % 1.72 % 2017-01-01
65 bjohnson12 1.71 % 1.71 % 2017-01-01
66 Rico69 1.71 % 1.71 % 2017-01-01
67 Carwin 1.70 % 1.70 % 2017-01-01
68 thebreen 1.70 % 1.70 % 2017-01-01
69 ephsns2 1.69 % 1.69 % 2017-01-01
70 boricua 1.69 % 1.69 % 2017-01-01
71 Skip 1.69 % 1.69 % 2017-01-01
72 FishSqueezer 1.68 % 1.68 % 2017-01-01
73 Cheng 1.68 % ** 1.68 % 2017-01-01
74 brentmc 1.68 % ** 1.68 % 2017-01-01
75 STCjUnKie 1.68 % ** 1.68 % 2017-01-01
76 bozdog 1.68 % ** 1.68 % 2017-01-01
77 rdsox05 1.68 % ** 1.68 % 2017-01-01
78 Tot_Global_Mkt 1.68 % ** 1.68 % 2017-01-01
79 siidman 1.67 % 1.67 % 2017-01-01
80 texaggies89 1.66 % 1.66 % 2017-01-01
81 rayald 1.66 % 1.66 % 2017-01-01
82 Whipsaw 1.66 % 1.66 % 2017-01-01
83 krempajs 1.65 % 1.65 % 2017-01-01
84 Timberwoof 1.65 % 1.65 % 2017-01-01
85 lifeasrxd 1.65 % ** 1.64 % 2017-01-01
86 misg4420 1.65 % ** 1.65 % 2017-01-01
87 1crazyfatboy 1.65 % ** 1.65 % 2017-01-01
88 JPW77 1.65 % ** 1.65 % 2017-01-01
89 andy 1.64 % ** 1.64 % 2017-01-01
90 mboja 1.64 % ** 1.64 % 2017-01-01
91 sdidieu 1.63 % ** 1.63 % 2017-01-01
92 waveman43 1.63 % ** 1.63 % 2017-01-01
93 lawnman 1.63 % ** 1.63 % 2017-01-01
94 hawktecc1 1.63 % ** 1.63 % 2017-01-01
95 Mucho_Dinero 1.62 % 1.62 % 2017-01-01
96 ArkHills 1.62 % 1.62 % 2017-01-01
97 markmars 1.62 % ** 1.62 % 2017-01-01
98 american42 1.62 % ** 1.62 % 2017-01-01
99 hg1866 1.62 % ** 1.62 % 2017-01-01
100 arquintana 1.62 % ** 1.62 % 2017-01-01
Rank Username YTD Returns MTD Returns Start Date
101 dctarheel 1.62 % ** 1.62 % 2017-01-01
102 fishhead 1.62 % ** 1.62 % 2017-01-01
103 GFundBaby 1.62 % ** 1.62 % 2017-01-01
104 Hodster 1.62 % ** 1.62 % 2017-01-01
105 Renegade 1.61 % 1.61 % 2017-01-01
106 kraplrak 1.61 % 1.61 % 2017-01-01
107 danie906 1.61 % ** 1.61 % 2017-01-01
108 furafura 1.61 % ** 1.61 % 2017-01-01
109 millstadt05 1.61 % ** 1.61 % 2017-01-01
110 cojo1988 1.61 % ** 1.61 % 2017-01-01
111 Moore 1.61 % ** 1.61 % 2017-01-01
112 tshare999 1.61 % ** 1.61 % 2017-01-01
113 crazyjames 1.61 % ** 1.61 % 2017-01-01
114 rookiecsi 1.60 % 1.60 % 2017-01-01
115 lartra 1.60 % 1.60 % 2017-01-01
116 lmcues 1.60 % 1.60 % 2017-01-01
117 noclue 1.60 % 1.60 % 2017-01-01
118 wwwtractor 1.60 % ** 1.60 % 2017-01-01
119 bloodbath 1.60 % ** 1.60 % 2017-01-01
120 Forecaster 1.60 % ** 1.60 % 2017-01-01
121 etawx 1.60 % ** 1.60 % 2017-01-01
122 flashmanxx 1.60 % ** 1.60 % 2017-01-01
123 soupykid 1.59 % 1.59 % 2017-01-01
124 dodgerblioux 1.59 % ** 1.59 % 2017-01-01
125 Ozzy_357924 1.59 % ** 1.59 % 2017-01-01
126 rch8710 1.59 % ** 1.59 % 2017-01-01
127 guahan96 1.59 % ** 1.59 % 2017-01-01
128 PICK68 1.59 % ** 1.59 % 2017-01-01
129 sgtbriangreen 1.58 % 1.58 % 2017-01-01
130 Pill 1.58 % 1.58 % 2017-01-01
131 yanni123 1.58 % 1.58 % 2017-01-01
132 CRUSHER 1.58 % ** 1.58 % 2017-01-01
133 EdwardSF 1.58 % ** 1.58 % 2017-01-01
134 Ghageman 1.58 % ** 1.58 % 2017-01-01
135 Kong13 1.58 % ** 1.58 % 2017-01-01
136 spinslight1 1.58 % ** 1.58 % 2017-01-01
137 towncop1978 1.58 % ** 1.58 % 2017-01-01
138 temptec 1.57 % ** 1.57 % 2017-01-01
139 invisiblebutterknife 1.57 % ** 1.57 % 2017-01-01
140 aminze 1.57 % ** 1.57 % 2017-01-01
141 cook79768 1.57 % ** 1.57 % 2017-01-01
142 Spydercop 1.56 % 1.56 % 2017-01-01
143 redman1970 1.56 % 1.56 % 2017-01-01
144 dlb11693 1.56 % ** 1.56 % 2017-01-01
145 deward 1.55 % ** 1.55 % 2017-01-01
146 usfwsduckriverman 1.55 % ** 1.55 % 2017-01-01
147 xsoljuhxpnoi929 1.54 % 1.54 % 2017-01-01
148 Booster 1.54 % 1.54 % 2017-01-01
149 Sign_Stealer 1.54 % 1.54 % 2017-01-01
150 BigLair 1.54 % 1.54 % 2017-01-01
Rank Username YTD Returns MTD Returns Start Date
151 flg22 1.54 % 1.54 % 2017-01-01
152 BigMike 1.54 % 1.54 % 2017-01-01
153 C-fund 1.54 % 1.54 % 2017-01-01
154 petersons 1.54 % 1.54 % 2017-01-01
155 Elktracker 1.54 % 1.54 % 2017-01-01
156 justbidinmytime 1.54 % 1.54 % 2017-01-01
157 Knight25 1.54 % 1.54 % 2017-01-01
158 berg1315 1.54 % 1.54 % 2017-01-01
159 Kayakfish 1.54 % ** 1.54 % 2017-01-01
160 JTH 1.54 % ** 1.54 % 2017-01-01
161 JTH-ALPAFS 1.54 % ** 1.54 % 2017-01-01
162 JTH-ESD 1.54 % ** 1.54 % 2017-01-01
163 vexter 1.54 % ** 1.54 % 2017-01-01
164 MMAC_POPS 1.54 % ** 1.54 % 2017-01-01
165 cthomas946 1.54 % ** 1.54 % 2017-01-01
166 agogley 1.54 % ** 1.54 % 2017-01-01
167 Big_Sarge 1.54 % ** 1.54 % 2017-01-01
168 ken863 1.54 % ** 1.54 % 2017-01-01
169 ranma143 1.54 % ** 1.54 % 2017-01-01
170 Lucky91 1.54 % ** 1.54 % 2017-01-01
171 Mack-Daddy 1.54 % ** 1.54 % 2017-01-01
172 babydux 1.54 % ** 1.54 % 2017-01-01
173 Sarchie 1.54 % ** 1.54 % 2017-01-01
174 Devilduck 1.54 % ** 1.54 % 2017-01-01
175 HotRod 1.54 % ** 1.54 % 2017-01-01
176 Jrgruters42 1.54 % ** 1.54 % 2017-01-01
177 jason011235813 1.54 % ** 1.54 % 2017-01-01
178 BLPinDC 1.54 % ** 1.54 % 2017-01-01
179 CheckRaze 1.54 % ** 1.54 % 2017-01-01
180 Heisenberg 1.54 % ** 1.54 % 2017-01-01
181 jssmith58 1.54 % ** 1.54 % 2017-01-01
182 leadoff2 1.54 % ** 1.54 % 2017-01-01
183 Macgyva 1.54 % ** 1.54 % 2017-01-01
184 MadMoneyJesse 1.54 % ** 1.54 % 2017-01-01
185 melandblue 1.54 % ** 1.54 % 2017-01-01
186 mepage 1.54 % ** 1.54 % 2017-01-01
187 messimoves 1.54 % ** 1.54 % 2017-01-01
188 MOVINUP 1.54 % ** 1.54 % 2017-01-01
189 pcola5625 1.54 % ** 1.54 % 2017-01-01
190 sarriola 1.54 % ** 1.54 % 2017-01-01
191 ShadowAx 1.54 % ** 1.54 % 2017-01-01
192 Short 1.54 % ** 1.54 % 2017-01-01
193 Sirius 1.54 % ** 1.54 % 2017-01-01
194 squid3326 1.54 % ** 1.54 % 2017-01-01
195 TheRealEDtheFED 1.54 % ** 1.54 % 2017-01-01
196 WallStreet 1.54 % ** 1.54 % 2017-01-01
197 BirchNWS 1.54 % ** 1.54 % 2017-01-01
198 jswright 1.53 % 1.53 % 2017-01-01
199 Richard_Todd 1.53 % 1.53 % 2017-01-01
200 BessMan94 1.53 % ** 1.53 % 2017-01-01
Rank Username YTD Returns MTD Returns Start Date
201 evimoore 1.53 % ** 1.53 % 2017-01-01
202 grube00 1.53 % ** 1.53 % 2017-01-01
203 RoldanFam 1.53 % ** 1.53 % 2017-01-01
204 sapfm 1.53 % ** 1.53 % 2017-01-01
205 cmccall661 1.52 % 1.52 % 2017-01-01
206 polarbear 1.52 % 1.52 % 2017-01-01
207 Boozin1 1.52 % ** 1.52 % 2017-01-01
208 dtrax 1.52 % ** 1.52 % 2017-01-01
209 Gethers 1.52 % ** 1.52 % 2017-01-01
210 kitaw33 1.51 % 1.51 % 2017-01-01
211 jaks51 1.51 % ** 1.51 % 2017-01-01
212 workdamnit 1.50 % ** 1.50 % 2017-01-01
213 IceJoe 1.50 % ** 1.50 % 2017-01-01
214 Highroller 1.49 % 1.49 % 2017-01-01
215 rgncajun68 1.49 % ** 1.49 % 2017-01-01
216 cwbys223 1.49 % ** 1.49 % 2017-01-01
217 MRJ 1.48 % 1.48 % 2017-01-01
218 dave 1.48 % 1.48 % 2017-01-01
219 lthor 1.48 % 1.48 % 2017-01-01
220 3days 1.48 % 1.48 % 2017-01-01
221 Britts4life 1.48 % 1.48 % 2017-01-01
222 almostdone 1.48 % ** 1.48 % 2017-01-01
223 bcf0514 1.48 % ** 1.48 % 2017-01-01
224 Sniki 1.48 % ** 1.48 % 2017-01-01
225 glysergt 1.47 % 1.47 % 2017-01-01
226 Beamer 1.47 % 1.47 % 2017-01-01
227 gaharris 1.47 % 1.47 % 2017-01-01
228 Craigart 1.47 % ** 1.47 % 2017-01-01
229 trobbi33 1.46 % 1.46 % 2017-01-01
230 evchau 1.46 % ** 1.46 % 2017-01-01
231 Kotcha 1.46 % ** 1.46 % 2017-01-01
232 Supernova2033 1.46 % ** 1.46 % 2017-01-01
233 urmomzbox 1.46 % ** 1.46 % 2017-01-01
234 trudger 1.45 % 1.45 % 2017-01-01
235 MrJohnRoss 1.45 % 1.45 % 2017-01-01
236 jsmiles 1.45 % 1.45 % 2017-01-01
237 smiles 1.45 % 1.45 % 2017-01-01
238 zegerst 1.45 % ** 1.45 % 2017-01-01
239 bombnav1 1.45 % ** 1.45 % 2017-01-01
240 kmx23 1.45 % ** 1.45 % 2017-01-01
241 Maine-i-ac 1.44 % 1.44 % 2017-01-01
242 Scarfinger68 1.44 % 1.44 % 2017-01-01
243 Boots22 1.44 % 1.44 % 2017-01-01
244 kevmanfoo 1.44 % ** 1.44 % 2017-01-01
245 tsclippinger 1.44 % ** 1.44 % 2017-01-01
246 Clemso 1.44 % ** 1.44 % 2017-01-01
247 DakotaKid 1.44 % ** 1.44 % 2017-01-01
248 Widget 1.44 % ** 1.44 % 2017-01-01
249 garrisoco 1.44 % ** 1.44 % 2017-01-01
250 gsamx 1.44 % ** 1.44 % 2017-01-01
Rank Username YTD Returns MTD Returns Start Date
251 Piniquim 1.44 % ** 1.44 % 2017-01-01
252 shagerty 1.44 % ** 1.44 % 2017-01-01
253 Total_US_Market 1.44 % ** 1.44 % 2017-01-01
254 rotti 1.44 % ** 1.44 % 2017-01-01
255 dcmorgan 1.44 % ** 1.44 % 2017-01-01
256 nicole5001 1.43 % ** 1.43 % 2017-01-01
257 Rod 1.43 % ** 1.43 % 2017-01-01
258 AzzySpazbourne 1.43 % ** 1.43 % 2017-01-01
259 eecscoder 1.43 % ** 1.43 % 2017-01-01
260 DigDugII 1.43 % ** 1.43 % 2017-01-01
261 fluffypotato 1.42 % 1.42 % 2017-01-01
262 mrtruckaudi 1.42 % 1.42 % 2017-01-01
263 arhodie 1.42 % 1.42 % 2017-01-01
264 Benny7563 1.42 % 1.42 % 2017-01-01
265 Volfan 1.42 % 1.42 % 2017-01-01
266 ksteiner560 1.42 % 1.42 % 2017-01-01
267 dunedad 1.42 % 1.42 % 2017-01-01
268 OBGibby 1.42 % 1.42 % 2017-01-01
269 pcalderin 1.42 % 1.42 % 2017-01-01
270 Bfejeran 1.42 % 1.41 % 2017-01-01
271 Pittdog 1.42 % 1.42 % 2017-01-01
272 Class 1.42 % 1.42 % 2017-01-01
273 Jayeks 1.42 % 1.42 % 2017-01-01
274 Cathy57 1.42 % 1.41 % 2017-01-01
275 doge1976 1.42 % 1.41 % 2017-01-01
276 silver2828 1.42 % 1.42 % 2017-01-01
277 SPN46er 1.42 % 1.42 % 2017-01-01
278 SSJodon 1.42 % 1.42 % 2017-01-01
279 RWJorg 1.42 % ** 1.42 % 2017-01-01
280 iyoung 1.42 % ** 1.42 % 2017-01-01
281 Rumpelstilzchen 1.42 % ** 1.42 % 2017-01-01
282 vbbikerbums 1.42 % ** 1.42 % 2017-01-01
283 MoneyManager 1.42 % ** 1.42 % 2017-01-01
284 KneednDough 1.42 % ** 1.42 % 2017-01-01
285 Andeano 1.42 % ** 1.42 % 2017-01-01
286 Ddarko 1.42 % ** 1.42 % 2017-01-01
287 future 1.42 % ** 1.42 % 2017-01-01
288 HocusPocus 1.42 % ** 1.42 % 2017-01-01
289 jpaulhus 1.42 % ** 1.42 % 2017-01-01
290 Raxser 1.42 % ** 1.42 % 2017-01-01
291 retire2017 1.42 % ** 1.42 % 2017-01-01
292 shaner19er 1.42 % ** 1.42 % 2017-01-01
293 SuzinCity 1.42 % ** 1.42 % 2017-01-01
294 valions15 1.42 % ** 1.42 % 2017-01-01
295 weigerber55 1.42 % ** 1.42 % 2017-01-01
296 rivs 1.42 % ** 1.42 % 2017-01-01
297 drgonzo58 1.42 % ** 1.42 % 2017-01-01
298 25or6to4 1.41 % 1.41 % 2017-01-01
299 Sandbagger6 1.41 % 1.41 % 2017-01-01
300 Skooby 1.41 % 1.41 % 2017-01-01
Rank Username YTD Returns MTD Returns Start Date
301 FedUpFed 1.41 % 1.41 % 2017-01-01
302 TSP-roulette 1.41 % 1.41 % 2017-01-01
303 martycox88 1.41 % 1.41 % 2017-01-01
304 Captcaveman 1.41 % 1.41 % 2017-01-01
305 evob 1.41 % 1.41 % 2017-01-01
306 packerbart 1.41 % 1.41 % 2017-01-01
307 rangerray 1.41 % 1.41 % 2017-01-01
308 Viva_La_Migra 1.41 % 1.41 % 2017-01-01
309 pamkk 1.41 % 1.41 % 2017-01-01
310 L2050 1.41 % 1.41 % 2017-01-01
311 jamilaunc 1.41 % 1.41 % 2017-01-01
312 eddie3375 1.41 % 1.41 % 2017-01-01
313 tashabh 1.41 % 1.41 % 2017-01-01
314 olddog 1.41 % 1.41 % 2017-01-01
315 OhioOkie 1.41 % 1.41 % 2017-01-01
316 inyadreems 1.41 % 1.41 % 2017-01-01
317 Mantonelli 1.41 % 1.41 % 2017-01-01
318 biomedrick 1.41 % ** 1.41 % 2017-01-01
319 poolman 1.41 % ** 1.41 % 2017-01-01
320 martint4 1.41 % ** 1.41 % 2017-01-01
321 franky 1.41 % ** 1.41 % 2017-01-01
322 goforit 1.41 % ** 1.41 % 2017-01-01
323 Jayt23 1.41 % ** 1.41 % 2017-01-01
324 kbennet1 1.41 % ** 1.41 % 2017-01-01
325 8_percent 1.41 % ** 1.41 % 2017-01-01
326 scubasteve1 1.41 % ** 1.41 % 2017-01-01
327 Caith 1.41 % ** 1.41 % 2017-01-01
328 tlap612 1.41 % ** 1.41 % 2017-01-01
329 Kjay 1.41 % ** 1.41 % 2017-01-01
330 joehacker 1.41 % ** 1.41 % 2017-01-01
331 MYDOGZCUTE 1.41 % ** 1.41 % 2017-01-01
332 rossbrian00 1.41 % ** 1.41 % 2017-01-01
333 elufints 1.41 % ** 1.41 % 2017-01-01
334 JG2017 1.41 % ** 1.41 % 2017-01-01
335 Stony 1.41 % ** 1.41 % 2017-01-01
336 surftec 1.41 % ** 1.41 % 2017-01-01
337 RAMORIPKIN 1.41 % ** 1.41 % 2017-01-01
338 tgun 1.41 % ** 1.41 % 2017-01-01
339 SkyPilot 1.41 % ** 1.41 % 2017-01-01
340 gio20 1.41 % ** 1.41 % 2017-01-01
341 93GT 1.41 % ** 1.41 % 2017-01-01
342 bettertrader 1.41 % ** 1.41 % 2017-01-01
343 bubba71842 1.41 % ** 1.41 % 2017-01-01
344 divemonkey 1.41 % ** 1.41 % 2017-01-01
345 doug.hornback 1.41 % ** 1.41 % 2017-01-01
346 khunk 1.41 % ** 1.41 % 2017-01-01
347 qbcall11 1.41 % ** 1.41 % 2017-01-01
348 Shivers 1.41 % ** 1.41 % 2017-01-01
349 tmntrc56 1.41 % ** 1.41 % 2017-01-01
350 Wrngway 1.41 % ** 1.41 % 2017-01-01
Rank Username YTD Returns MTD Returns Start Date
351 Lucas123 1.41 % ** 1.41 % 2017-01-01
352 DesertBoots77 1.41 % ** 1.41 % 2017-01-01
353 jdeacon 1.40 % 1.40 % 2017-01-01
354 homieg24 1.40 % 1.40 % 2017-01-01
355 Wizard_of_Oz 1.40 % 1.40 % 2017-01-01
356 puppylove 1.40 % 1.40 % 2017-01-01
357 buckeyefan201 1.40 % ** 1.40 % 2017-01-01
358 sparty83 1.39 % 1.39 % 2017-01-01
359 Niner49er52 1.39 % 1.39 % 2017-01-01
360 1Mech 1.39 % 1.39 % 2017-01-01
361 rwwjr65 1.39 % ** 1.39 % 2017-01-01
362 kibey84 1.39 % ** 1.39 % 2017-01-01
363 TSPBrett 1.39 % ** 1.39 % 2017-01-01
364 DoughBoy 1.39 % ** 1.39 % 2017-01-01
365 Gain10 1.39 % ** 1.39 % 2017-01-01
366 joharo 1.39 % ** 1.39 % 2017-01-01
367 RookieInvestor 1.39 % ** 1.39 % 2017-01-01
368 spacepoints 1.39 % ** 1.39 % 2017-01-01
369 Mustangmoose302 1.38 % 1.38 % 2017-01-01
370 william4x 1.38 % ** 1.38 % 2017-01-01
371 itsRaining 1.38 % ** 1.38 % 2017-01-01
372 atarrin 1.38 % ** 1.38 % 2017-01-01
373 sean101 1.37 % 1.37 % 2017-01-01
374 Jqsomera 1.37 % 1.37 % 2017-01-01
375 mdearman 1.37 % ** 1.37 % 2017-01-01
376 Awsum_Al 1.37 % ** 1.37 % 2017-01-01
377 EricDeLee 1.36 % 1.36 % 2017-01-01
378 BrandesValue 1.36 % 1.36 % 2017-01-01
379 marshad_786 1.36 % 1.36 % 2017-01-01
380 revel 1.36 % 1.36 % 2017-01-01
381 Unmanned 1.36 % 1.36 % 2017-01-01
382 Tubman83 1.36 % 1.36 % 2017-01-01
383 stacks 1.36 % ** 1.36 % 2017-01-01
384 Kafkaesquee 1.36 % ** 1.36 % 2017-01-01
385 JimmyJoe 1.36 % ** 1.36 % 2017-01-01
386 mpie72 1.36 % ** 1.36 % 2017-01-01
387 meltuna 1.35 % 1.35 % 2017-01-01
388 pdug 1.35 % 1.35 % 2017-01-01
389 tkd1982 1.35 % 1.35 % 2017-01-01
390 Bullseye 1.35 % 1.35 % 2017-01-01
391 CapnEddie 1.35 % 1.35 % 2017-01-01
392 Barney 1.35 % 1.35 % 2017-01-01
393 Hamhocs 1.35 % 1.35 % 2017-01-01
394 Jayru 1.35 % ** 1.35 % 2017-01-01
395 badgerland 1.35 % ** 1.35 % 2017-01-01
396 Burt 1.35 % ** 1.35 % 2017-01-01
397 ijmurray 1.35 % ** 1.35 % 2017-01-01
398 ksklmiller 1.35 % ** 1.35 % 2017-01-01
399 sage 1.35 % ** 1.35 % 2017-01-01
400 savagemojo 1.35 % ** 1.35 % 2017-01-01
Rank Username YTD Returns MTD Returns Start Date
401 kathy73 1.34 % 1.34 % 2017-01-01
402 Clue 1.34 % 1.34 % 2017-01-01
403 Gypsy55 1.34 % 1.34 % 2017-01-01
404 maverick06 1.34 % ** 1.34 % 2017-01-01
405 markopolno12 1.34 % ** 1.34 % 2017-01-01
406 2Plus 1.33 % 1.33 % 2017-01-01
407 Jetpowered78 1.33 % ** 1.33 % 2017-01-01
408 mosicki 1.33 % ** 1.33 % 2017-01-01
409 Morpheus 1.33 % ** 1.33 % 2017-01-01
410 scrsvs 1.32 % 1.32 % 2017-01-01
411 Boghie 1.31 % 1.31 % 2017-01-01
412 lmbebo 1.31 % ** 1.31 % 2017-01-01
413 Calicat69 1.31 % ** 1.31 % 2017-01-01
414 FedSince2009 1.30 % 1.30 % 2017-01-01
415 PIC153BD 1.30 % ** 1.30 % 2017-01-01
416 redcard 1.30 % ** 1.30 % 2017-01-01
417 Christopher 1.29 % 1.29 % 2017-01-01
418 CrgButcher 1.29 % 1.29 % 2017-01-01
419 freemanick 1.29 % 1.29 % 2017-01-01
420 marco59 1.29 % 1.29 % 2017-01-01
421 MrBowl 1.29 % 1.29 % 2017-01-01
422 Sonic 1.29 % 1.29 % 2017-01-01
423 Totohydra 1.29 % 1.29 % 2017-01-01
424 tton 1.29 % 1.29 % 2017-01-01
425 c130 1.29 % 1.29 % 2017-01-01
426 dialing4dollars 1.29 % 1.29 % 2017-01-01
427 UCFVern 1.29 % 1.29 % 2017-01-01
428 argyle64 1.29 % 1.29 % 2017-01-01
429 GenStar 1.29 % 1.29 % 2017-01-01
430 rebel346 1.29 % 1.29 % 2017-01-01
431 BigBully 1.29 % 1.29 % 2017-01-01
432 mikepop 1.29 % 1.29 % 2017-01-01
433 steve10608 1.29 % 1.29 % 2017-01-01
434 ShadowHawk 1.29 % 1.29 % 2017-01-01
435 radarvector 1.29 % 1.29 % 2017-01-01
436 Wildwoman 1.29 % 1.29 % 2017-01-01
437 a1sauce 1.29 % 1.29 % 2017-01-01
438 moneymikem 1.29 % 1.29 % 2017-01-01
439 bkc2a 1.29 % 1.29 % 2017-01-01
440 BrkBred247 1.29 % 1.29 % 2017-01-01
441 craigerv 1.29 % 1.29 % 2017-01-01
442 rbizz 1.29 % 1.29 % 2017-01-01
443 ccarrolls 1.29 % 1.29 % 2017-01-01
444 kcfz0t 1.29 % 1.29 % 2017-01-01
445 KyFan1 1.29 % 1.29 % 2017-01-01
446 MaStA 1.29 % 1.29 % 2017-01-01
447 philcam 1.29 % 1.29 % 2017-01-01
448 SPOT_LT 1.29 % 1.29 % 2017-01-01
449 ttn 1.29 % 1.29 % 2017-01-01
450 Brinky 1.29 % 1.29 % 2017-01-01
Rank Username YTD Returns MTD Returns Start Date
451 S-fund 1.29 % 1.29 % 2017-01-01
452 LMBF1-CI>S 1.29 % 1.29 % 2017-01-01
453 Mista_Magee 1.29 % 1.29 % 2017-01-01
454 TXTornados 1.29 % 1.29 % 2017-01-01
455 caseyd8s 1.29 % 1.29 % 2017-01-01
456 jmartello 1.29 % 1.29 % 2017-01-01
457 TraderJane 1.29 % 1.29 % 2017-01-01
458 denbo 1.29 % 1.29 % 2017-01-01
459 n.shift 1.29 % 1.29 % 2017-01-01
460 b52vqn 1.29 % 1.29 % 2017-01-01
461 boilerman 1.29 % 1.29 % 2017-01-01
462 jeffrey77jones 1.29 % 1.29 % 2017-01-01
463 mikepriest 1.29 % 1.29 % 2017-01-01
464 pjsstuff71 1.29 % 1.29 % 2017-01-01
465 bailemi 1.29 % 1.29 % 2017-01-01
466 Cactus 1.29 % 1.29 % 2017-01-01
467 RDJ67 1.29 % 1.29 % 2017-01-01
468 GonzoJK 1.29 % 1.29 % 2017-01-01
469 mschewy 1.29 % 1.29 % 2017-01-01
470 Babygirl07 1.29 % 1.29 % 2017-01-01
471 thewingreaper 1.29 % 1.29 % 2017-01-01
472 Cashflow911 1.29 % 1.29 % 2017-01-01
473 Aviator_Guy 1.29 % 1.29 % 2017-01-01
474 Dorado 1.29 % 1.29 % 2017-01-01
475 NotReally! 1.29 % 1.29 % 2017-01-01
476 FatMan 1.29 % 1.29 % 2017-01-01
477 fedgolfer 1.29 % 1.29 % 2017-01-01
478 Reggie0622 1.29 % 1.29 % 2017-01-01
479 asuasylum 1.29 % 1.29 % 2017-01-01
480 jwblanfo 1.29 % 1.29 % 2017-01-01
481 RX-7 1.29 % 1.29 % 2017-01-01
482 chemmie 1.29 % 1.29 % 2017-01-01
483 ILoveTDs 1.29 % 1.29 % 2017-01-01
484 jmtz54 1.29 % 1.29 % 2017-01-01
485 Bullet 1.29 % 1.29 % 2017-01-01
486 mxtwo50r 1.29 % 1.29 % 2017-01-01
487 dseery3 1.29 % 1.29 % 2017-01-01
488 jerodt 1.29 % 1.29 % 2017-01-01
489 LAT 1.29 % 1.29 % 2017-01-01
490 48cj2a 1.29 % ** 1.29 % 2017-01-01
491 Scraps 1.29 % ** 1.29 % 2017-01-01
492 soupyBeard 1.29 % ** 1.29 % 2017-01-01
493 smitmw 1.29 % ** 1.29 % 2017-01-01
494 spantzer 1.29 % ** 1.29 % 2017-01-01
495 ArchAngel 1.29 % ** 1.29 % 2017-01-01
496 Damndogs 1.29 % ** 1.29 % 2017-01-01
497 czapor1967 1.29 % ** 1.29 % 2017-01-01
498 HarleyLar 1.29 % ** 1.29 % 2017-01-01
499 jbvollmer 1.29 % ** 1.29 % 2017-01-01
500 adestonobis 1.29 % ** 1.29 % 2017-01-01
Rank Username YTD Returns MTD Returns Start Date
501 bylow-cellhi 1.29 % ** 1.29 % 2017-01-01
502 kodaq2001 1.29 % ** 1.29 % 2017-01-01
503 thinkman 1.29 % ** 1.29 % 2017-01-01
504 tankerclown 1.29 % ** 1.29 % 2017-01-01
505 coop65 1.29 % ** 1.29 % 2017-01-01
506 canmannc 1.29 % ** 1.29 % 2017-01-01
507 geargirl 1.29 % ** 1.29 % 2017-01-01
508 captjamied 1.29 % ** 1.29 % 2017-01-01
509 Bettinainc 1.29 % ** 1.29 % 2017-01-01
510 Woodys_World 1.29 % ** 1.29 % 2017-01-01
511 jetjammr 1.29 % ** 1.29 % 2017-01-01
512 68chevy 1.29 % ** 1.29 % 2017-01-01
513 G-Money 1.29 % ** 1.29 % 2017-01-01
514 sythbpr 1.29 % ** 1.29 % 2017-01-01
515 nightman 1.29 % ** 1.29 % 2017-01-01
516 Aiagib 1.29 % ** 1.29 % 2017-01-01
517 MahiChaser 1.29 % ** 1.29 % 2017-01-01
518 eshore07 1.29 % ** 1.29 % 2017-01-01
519 krash9561 1.29 % ** 1.29 % 2017-01-01
520 ILTDtechnical 1.29 % ** 1.29 % 2017-01-01
521 Sensei 1.29 % ** 1.29 % 2017-01-01
522 rallythis 1.29 % ** 1.29 % 2017-01-01
523 kleios 1.29 % ** 1.29 % 2017-01-01
524 walterramjet 1.29 % ** 1.29 % 2017-01-01
525 RabbiTuckman 1.29 % ** 1.29 % 2017-01-01
526 Dexter 1.29 % ** 1.29 % 2017-01-01
527 gronk007 1.29 % ** 1.29 % 2017-01-01
528 BReine13 1.29 % ** 1.29 % 2017-01-01
529 DylanFan 1.29 % ** 1.29 % 2017-01-01
530 mollshark 1.29 % ** 1.29 % 2017-01-01
531 recki13 1.29 % ** 1.29 % 2017-01-01
532 kawzman 1.29 % ** 1.29 % 2017-01-01
533 NavyEng 1.29 % ** 1.29 % 2017-01-01
534 NiteFlyer 1.29 % ** 1.29 % 2017-01-01
535 sniper 1.29 % ** 1.29 % 2017-01-01
536 Uptrend 1.29 % ** 1.29 % 2017-01-01
537 Legend 1.29 % ** 1.29 % 2017-01-01
538 Hank2 1.29 % ** 1.29 % 2017-01-01
539 barryc 1.29 % ** 1.29 % 2017-01-01
540 HookemDanno 1.29 % ** 1.29 % 2017-01-01
541 vdubya 1.29 % ** 1.29 % 2017-01-01
542 Dave98 1.29 % ** 1.29 % 2017-01-01
543 applejack 1.29 % ** 1.29 % 2017-01-01
544 D_Brown 1.29 % ** 1.29 % 2017-01-01
545 Piesanders 1.29 % ** 1.29 % 2017-01-01
546 madchili 1.29 % ** 1.29 % 2017-01-01
547 uphan 1.29 % ** 1.29 % 2017-01-01
548 Cmarq2k2 1.29 % ** 1.29 % 2017-01-01
549 ReverendHerc 1.29 % ** 1.29 % 2017-01-01
550 antauz 1.29 % ** 1.29 % 2017-01-01
Rank Username YTD Returns MTD Returns Start Date
551 horseman 1.29 % ** 1.29 % 2017-01-01
552 Racerx919 1.29 % ** 1.29 % 2017-01-01
553 SPUR 1.29 % ** 1.29 % 2017-01-01
554 uscs344 1.29 % ** 1.29 % 2017-01-01
555 1953greg 1.29 % ** 1.29 % 2017-01-01
556 40calSue 1.29 % ** 1.29 % 2017-01-01
557 5hundy 1.29 % ** 1.29 % 2017-01-01
558 accountant02130 1.29 % ** 1.29 % 2017-01-01
559 albwrong 1.29 % ** 1.29 % 2017-01-01
560 andercee 1.29 % ** 1.29 % 2017-01-01
561 Asylum 1.29 % ** 1.29 % 2017-01-01
562 barb41048 1.29 % ** 1.29 % 2017-01-01
563 BichonFreeze 1.29 % ** 1.29 % 2017-01-01
564 bigcat61 1.29 % ** 1.29 % 2017-01-01
565 bluecrab 1.29 % ** 1.29 % 2017-01-01
566 bobmarley753 1.29 % ** 1.29 % 2017-01-01
567 BP171 1.29 % ** 1.29 % 2017-01-01
568 Bravos_Time! 1.29 % ** 1.29 % 2017-01-01
569 bucket 1.29 % ** 1.29 % 2017-01-01
570 ccharsh22 1.29 % ** 1.29 % 2017-01-01
571 ckeiththeman 1.29 % ** 1.29 % 2017-01-01
572 Dalz 1.29 % ** 1.29 % 2017-01-01
573 Dartman 1.29 % ** 1.29 % 2017-01-01
574 delldell 1.29 % ** 1.29 % 2017-01-01
575 dojdave 1.29 % ** 1.29 % 2017-01-01
576 DonKeyhote 1.29 % ** 1.29 % 2017-01-01
577 Dsots 1.29 % ** 1.29 % 2017-01-01
578 elinca 1.29 % ** 1.29 % 2017-01-01
579 engr_villa 1.29 % ** 1.29 % 2017-01-01
580 ericwinn 1.29 % ** 1.29 % 2017-01-01
581 FISHHEADS 1.29 % ** 1.29 % 2017-01-01
582 flipman 1.29 % ** 1.29 % 2017-01-01
583 gagobutos 1.29 % ** 1.29 % 2017-01-01
584 gdraft 1.29 % ** 1.29 % 2017-01-01
585 hardyandtiny 1.29 % ** 1.29 % 2017-01-01
586 Howanic 1.29 % ** 1.29 % 2017-01-01
587 Jagman26 1.29 % ** 1.29 % 2017-01-01
588 Jaygoots 1.29 % ** 1.29 % 2017-01-01
589 jerzystang 1.29 % ** 1.29 % 2017-01-01
590 Jimmys_Girl 1.29 % ** 1.29 % 2017-01-01
591 Kylee 1.29 % ** 1.29 % 2017-01-01
592 ldrltjg 1.29 % ** 1.29 % 2017-01-01
593 lestampoc 1.29 % ** 1.29 % 2017-01-01
594 liquidh2o 1.29 % ** 1.29 % 2017-01-01
595 Magic 1.29 % ** 1.29 % 2017-01-01
596 marcusg 1.29 % ** 1.29 % 2017-01-01
597 martypantsss 1.29 % ** 1.29 % 2017-01-01
598 mikrodojr 1.29 % ** 1.29 % 2017-01-01
599 minhan_1408 1.29 % ** 1.29 % 2017-01-01
600 mrfishing 1.29 % ** 1.29 % 2017-01-01
Rank Username YTD Returns MTD Returns Start Date
601 Mr_Mojo_Rising 1.29 % ** 1.29 % 2017-01-01
602 mustbev 1.29 % ** 1.29 % 2017-01-01
603 NationalGuard 1.29 % ** 1.29 % 2017-01-01
604 navgod34 1.29 % ** 1.29 % 2017-01-01
605 Newbie 1.29 % ** 1.29 % 2017-01-01
606 nnewman 1.29 % ** 1.29 % 2017-01-01
607 pops 1.29 % ** 1.29 % 2017-01-01
608 pwagner3md 1.29 % ** 1.29 % 2017-01-01
609 rabbithimself 1.29 % ** 1.29 % 2017-01-01
610 Revanshill 1.29 % ** 1.29 % 2017-01-01
611 Rifleman 1.29 % ** 1.29 % 2017-01-01
612 rwmiller50 1.29 % ** 1.29 % 2017-01-01
613 sball.ca 1.29 % ** 1.29 % 2017-01-01
614 SeaOtter 1.29 % ** 1.29 % 2017-01-01
615 shelby642 1.29 % ** 1.29 % 2017-01-01
616 shoeboxgorilla 1.29 % ** 1.29 % 2017-01-01
617 skbn 1.29 % ** 1.29 % 2017-01-01
618 skid-kid 1.29 % ** 1.29 % 2017-01-01
619 Snake1b4 1.29 % ** 1.29 % 2017-01-01
620 SPANK550 1.29 % ** 1.29 % 2017-01-01
621 SR101 1.29 % ** 1.29 % 2017-01-01
622 TaillightMafia 1.29 % ** 1.29 % 2017-01-01
623 taronsr 1.29 % ** 1.29 % 2017-01-01
624 tekpc2k2 1.29 % ** 1.29 % 2017-01-01
625 theScientist 1.29 % ** 1.29 % 2017-01-01
626 tlmathe 1.29 % ** 1.29 % 2017-01-01
627 trwill7172 1.29 % ** 1.29 % 2017-01-01
628 victoria 1.29 % ** 1.29 % 2017-01-01
629 vintage53 1.29 % ** 1.29 % 2017-01-01
630 wolfpup77 1.29 % ** 1.29 % 2017-01-01
631 Wulfie 1.29 % ** 1.29 % 2017-01-01
632 wsureshoot 1.29 % ** 1.29 % 2017-01-01
633 drewcifer 1.29 % ** 1.29 % 2017-01-01
634 snwbrdr397 1.29 % ** 1.29 % 2017-01-01
635 Handballer 1.29 % ** 1.29 % 2017-01-01
636 Steelhead 1.29 % ** 1.29 % 2017-01-01
637 wddolson 1.29 % ** 1.29 % 2017-01-01
638 DetroitLifer 1.29 % ** 1.29 % 2017-01-01
639 Crackon 1.29 % ** 1.29 % 2017-01-01
640 LMBF_Method 1.29 % ** 1.29 % 2017-01-01
641 indgilbert 1.28 % 1.28 % 2017-01-01
642 redman2222 1.28 % ** 1.28 % 2017-01-01
643 playboy 1.28 % ** 1.28 % 2017-01-01
644 lsutiger1985 1.28 % ** 1.28 % 2017-01-01
645 gsrider 1.27 % 1.27 % 2017-01-01
646 Mercy 1.27 % ** 1.27 % 2017-01-01
647 cbp03 1.27 % ** 1.27 % 2017-01-01
648 saxman 1.27 % ** 1.27 % 2017-01-01
649 L2040 1.26 % 1.26 % 2017-01-01
650 Markster70 1.26 % ** 1.26 % 2017-01-01
Rank Username YTD Returns MTD Returns Start Date
651 soupygirl 1.26 % ** 1.26 % 2017-01-01
652 Salmon365 1.26 % ** 1.26 % 2017-01-01
653 soam24 1.26 % ** 1.26 % 2017-01-01
654 Castronaut 1.26 % ** 1.26 % 2017-01-01
655 Forcefed 1.26 % ** 1.26 % 2017-01-01
656 GOVOLS 1.26 % ** 1.26 % 2017-01-01
657 soupydog 1.26 % ** 1.26 % 2017-01-01
658 Tvenos 1.26 % ** 1.26 % 2017-01-01
659 Riverman62 1.25 % ** 1.25 % 2017-01-01
660 Inertia 1.25 % ** 1.25 % 2017-01-01
661 kujayhawk69 1.25 % ** 1.25 % 2017-01-01
662 TheGizz 1.25 % ** 1.25 % 2017-01-01
663 Jane 1.24 % 1.24 % 2017-01-01
664 arrow_point 1.24 % 1.24 % 2017-01-01
665 EarlyRTr 1.24 % 1.24 % 2017-01-01
666 Weather_n_Leather 1.24 % ** 1.24 % 2017-01-01
667 k9lowe 1.23 % ** 1.23 % 2017-01-01
668 jplecain 1.22 % ** 1.22 % 2017-01-01
669 ldm1958 1.22 % ** 1.22 % 2017-01-01
670 slakker97 1.22 % ** 1.22 % 2017-01-01
671 felixthecat 1.21 % 1.21 % 2017-01-01
672 joewashdc 1.21 % ** 1.21 % 2017-01-01
673 ferretgrl 1.21 % ** 1.21 % 2017-01-01
674 mikeginva 1.21 % ** 1.21 % 2017-01-01
675 resurgemus 1.20 % 1.20 % 2017-01-01
676 raiderddj 1.20 % 1.20 % 2017-01-01
677 mcash 1.20 % 1.20 % 2017-01-01
678 Tamjay74 1.20 % ** 1.20 % 2017-01-01
679 miyagi 1.19 % 1.19 % 2017-01-01
680 kemphrunner 1.19 % ** 1.19 % 2017-01-01
681 Bball 1.19 % ** 1.19 % 2017-01-01
682 Jaybird79 1.19 % ** 1.19 % 2017-01-01
683 janemattress711 1.18 % 1.18 % 2017-01-01
684 cfwcfw 1.18 % ** 1.17 % 2017-01-01
685 mrduckmd1 1.16 % 1.16 % 2017-01-01
686 codezero 1.16 % ** 1.16 % 2017-01-01
687 lilbob 1.16 % ** 1.16 % 2017-01-01
688 paperbitch 1.15 % ** 1.15 % 2017-01-01
689 galaxy101 1.14 % 1.14 % 2017-01-01
690 CapeChem 1.14 % 1.14 % 2017-01-01
691 cvlsvt 1.14 % ** 1.14 % 2017-01-01
692 mrmaxd 1.13 % 1.13 % 2017-01-01
693 felinecrl 1.13 % ** 1.13 % 2017-01-01
694 scaltagi 1.12 % ** 1.12 % 2017-01-01
695 1derman 1.11 % 1.11 % 2017-01-01
696 riverdestiny 1.11 % ** 1.11 % 2017-01-01
697 weather 1.10 % 1.10 % 2017-01-01
698 L2030 1.10 % 1.10 % 2017-01-01
699 LeCouchonDingue 1.10 % ** 1.10 % 2017-01-01
700 DrScooter 1.10 % ** 1.10 % 2017-01-01
Rank Username YTD Returns MTD Returns Start Date
701 pathalford 1.10 % ** 1.10 % 2017-01-01
702 spgenius 1.09 % 1.09 % 2017-01-01
703 JOSE123 1.09 % ** 1.09 % 2017-01-01
704 Carpatc 1.09 % ** 1.09 % 2017-01-01
705 tjdorrie 1.09 % ** 1.09 % 2017-01-01
706 NSLADL2 1.07 % ** 1.07 % 2017-01-01
707 Kaufmanrider 1.07 % ** 1.07 % 2017-01-01
708 canisdog 1.07 % ** 1.07 % 2017-01-01
709 pinion 1.06 % ** 1.06 % 2017-01-01
710 pwclantdiv 1.06 % ** 1.06 % 2017-01-01
711 scsiguru 1.06 % ** 1.06 % 2017-01-01
712 frostybosty 1.05 % 1.05 % 2017-01-01
713 Phil46 1.05 % ** 1.05 % 2017-01-01
714 cybermage 1.05 % ** 1.05 % 2017-01-01
715 mallardman89 1.05 % ** 1.05 % 2017-01-01
716 LilLair 1.04 % 1.04 % 2017-01-01
717 20%_each 1.04 % 1.04 % 2017-01-01
718 catak 1.04 % ** 1.04 % 2017-01-01
719 CDooge 1.04 % ** 1.04 % 2017-01-01
720 Rube 1.04 % ** 1.04 % 2017-01-01
721 msm24 1.04 % ** 1.04 % 2017-01-01
722 Striken7 1.04 % ** 1.04 % 2017-01-01
723 fran1775 1.03 % 1.03 % 2017-01-01
724 Rogue 1.03 % 1.03 % 2017-01-01
725 StockSurfer 1.03 % 1.03 % 2017-01-01
726 poi9 1.03 % 1.03 % 2017-01-01
727 jasonlwright 1.03 % 1.03 % 2017-01-01
728 hosscube 1.03 % ** 1.03 % 2017-01-01
729 ryencsik 1.03 % ** 1.03 % 2017-01-01
730 MakeItRain 1.00 % 1.00 % 2017-01-01
731 BGBassLady64 1.00 % 1.00 % 2017-01-01
732 IWTC 1.00 % 1.00 % 2017-01-01
733 parkbrau 1.00 % ** 1.00 % 2017-01-01
734 KNUCKLEDRAGGER 0.99 % 0.99 % 2017-01-01
735 sigj 0.98 % 0.98 % 2017-01-01
736 postalmatt 0.97 % 0.97 % 2017-01-01
737 SKIPPER 0.97 % 0.97 % 2017-01-01
738 mickeyelk 0.95 % 0.95 % 2017-01-01
739 Emcd14 0.95 % ** 0.95 % 2017-01-01
740 SWAVET 0.94 % 0.94 % 2017-01-01
741 dallashalos 0.93 % 0.93 % 2017-01-01
742 Kentucky 0.91 % 0.91 % 2017-01-01
743 Bender 0.91 % ** 0.91 % 2017-01-01
744 Bmoredunks 0.90 % 0.90 % 2017-01-01
745 Renoir 0.90 % ** 0.90 % 2017-01-01
746 hotwings 0.89 % 0.89 % 2017-01-01
747 txfan 0.89 % 0.89 % 2017-01-01
748 lkatme 0.89 % ** 0.89 % 2017-01-01
749 Tangmonke 0.89 % ** 0.89 % 2017-01-01
750 lsrodgers 0.89 % ** 0.89 % 2017-01-01
Rank Username YTD Returns MTD Returns Start Date
751 londi1tagaholy 0.88 % ** 0.88 % 2017-01-01
752 Kevindraws53 0.88 % ** 0.88 % 2017-01-01
753 slayer72 0.86 % 0.86 % 2017-01-01
754 Towanda 0.85 % 0.85 % 2017-01-01
755 fossilbird 0.85 % ** 0.85 % 2017-01-01
756 clester 0.84 % 0.84 % 2017-01-01
757 HollywoodNY 0.84 % ** 0.84 % 2017-01-01
758 Pmnick114 0.84 % ** 0.84 % 2017-01-01
759 msls6 0.83 % 0.83 % 2017-01-01
760 Medic72 0.82 % ** 0.82 % 2017-01-01
761 TKMike 0.81 % 0.81 % 2017-01-01
762 netforcer 0.81 % 0.81 % 2017-01-01
763 coinmanjack 0.81 % ** 0.81 % 2017-01-01
764 maui21ice 0.80 % 0.80 % 2017-01-01
765 brobin10 0.80 % 0.80 % 2017-01-01
766 Luckycat 0.80 % ** 0.80 % 2017-01-01
767 ChessGuy 0.79 % 0.79 % 2017-01-01
768 ravenstreasures 0.79 % ** 0.79 % 2017-01-01
769 neptune 0.78 % 0.78 % 2017-01-01
770 StockTater 0.78 % ** 0.78 % 2017-01-01
771 razorbckx 0.78 % ** 0.78 % 2017-01-01
772 p3a 0.77 % 0.77 % 2017-01-01
773 dmanron58 0.77 % 0.77 % 2017-01-01
774 Rainmaker44 0.77 % 0.77 % 2017-01-01
775 tataberto 0.77 % 0.77 % 2017-01-01
776 TradingJoe 0.77 % 0.77 % 2017-01-01
777 L2020 0.77 % 0.77 % 2017-01-01
778 14ers 0.77 % ** 0.77 % 2017-01-01
779 KevinD 0.77 % ** 0.77 % 2017-01-01
780 wornout 0.77 % ** 0.77 % 2017-01-01
781 derosafj 0.77 % ** 0.77 % 2017-01-01
782 dpardue 0.77 % ** 0.77 % 2017-01-01
783 Sad_Al 0.76 % 0.76 % 2017-01-01
784 arodiaz 0.76 % ** 0.76 % 2017-01-01
785 BIGfRED 0.76 % ** 0.76 % 2017-01-01
786 Trapperpaul 0.75 % 0.75 % 2017-01-01
787 gos3319 0.75 % ** 0.75 % 2017-01-01
788 domino11 0.75 % ** 0.75 % 2017-01-01
789 silversurfer 0.74 % 0.74 % 2017-01-01
790 alexkoonce 0.74 % ** 0.74 % 2017-01-01
791 timingbill 0.73 % ** 0.73 % 2017-01-01
792 soon2retire 0.73 % ** 0.73 % 2017-01-01
793 GoNoles 0.73 % ** 0.73 % 2017-01-01
794 1FraGar 0.72 % 0.72 % 2017-01-01
795 JAFI 0.71 % ** 0.71 % 2017-01-01
796 TURNIPSEED 0.71 % ** 0.71 % 2017-01-01
797 PTSarge 0.71 % ** 0.71 % 2017-01-01
798 Spaniard 0.70 % 0.70 % 2017-01-01
799 mbergevinjr 0.70 % 0.70 % 2017-01-01
800 69mustang 0.70 % 0.70 % 2017-01-01
Rank Username YTD Returns MTD Returns Start Date
801 crhuss 0.70 % ** 0.70 % 2017-01-01
802 Klear 0.69 % 0.69 % 2017-01-01
803 Semper 0.69 % 0.69 % 2017-01-01
804 merlin 0.68 % ** 0.68 % 2017-01-01
805 rich1 0.68 % ** 0.68 % 2017-01-01
806 bikeboyjoe 0.67 % ** 0.67 % 2017-01-01
807 Rundp 0.67 % ** 0.67 % 2017-01-01
808 Beacher1 0.65 % 0.65 % 2017-01-01
809 batman 0.65 % ** 0.65 % 2017-01-01
810 BillD 0.65 % ** 0.65 % 2017-01-01
811 jpcavin 0.64 % 0.64 % 2017-01-01
812 roonie 0.64 % 0.64 % 2017-01-01
813 Bdiddy 0.63 % 0.63 % 2017-01-01
814 REDNECK 0.63 % ** 0.63 % 2017-01-01
815 JABS 0.62 % 0.62 % 2017-01-01
816 yeot 0.61 % ** 0.61 % 2017-01-01
817 Ducksrule 0.60 % 0.60 % 2017-01-01
818 murph 0.60 % 0.60 % 2017-01-01
819 flyoa1 0.58 % 0.58 % 2017-01-01
820 sdhoag13 0.58 % 0.58 % 2017-01-01
821 bmthomas0222 0.58 % ** 0.58 % 2017-01-01
822 limebalz 0.57 % 0.57 % 2017-01-01
823 99percent 0.57 % 0.57 % 2017-01-01
824 evilanne 0.56 % 0.56 % 2017-01-01
825 fick 0.56 % 0.56 % 2017-01-01
826 konakathy 0.55 % 0.55 % 2017-01-01
827 2Funds 0.55 % 0.55 % 2017-01-01
828 mtstricker 0.55 % ** 0.55 % 2017-01-01
829 cyoa1fan 0.54 % 0.54 % 2017-01-01
830 bullsheet 0.52 % ** 0.52 % 2017-01-01
831 amuraider 0.51 % 0.51 % 2017-01-01
832 wevodau 0.50 % 0.50 % 2017-01-01
833 joh1135 0.50 % ** 0.50 % 2017-01-01
834 ezcomeezgo 0.49 % 0.49 % 2017-01-01
835 barnowlet 0.49 % 0.49 % 2017-01-01
836 chingerson 0.49 % ** 0.49 % 2017-01-01
837 safetyguy 0.48 % 0.48 % 2017-01-01
838 TerpTrader 0.48 % 0.48 % 2017-01-01
839 jpatriarca 0.48 % 0.48 % 2017-01-01
840 IFTrader 0.47 % 0.47 % 2017-01-01
841 North 0.47 % ** 0.47 % 2017-01-01
842 tdorney1 0.47 % ** 0.47 % 2017-01-01
843 EarlyRetire 0.46 % 0.46 % 2017-01-01
844 MaxPowers 0.46 % 0.46 % 2017-01-01
845 DLBJr 0.46 % 0.46 % 2017-01-01
846 farmerjack 0.46 % ** 0.46 % 2017-01-01
847 bones605 0.45 % 0.45 % 2017-01-01
848 NASAedStevens 0.45 % ** 0.45 % 2017-01-01
849 PAINTER533 0.45 % ** 0.45 % 2017-01-01
850 kave 0.44 % 0.44 % 2017-01-01
Rank Username YTD Returns MTD Returns Start Date
851 tazzymt 0.44 % 0.44 % 2017-01-01
852 L-Income 0.44 % 0.44 % 2017-01-01
853 goldenyears 0.44 % 0.44 % 2017-01-01
854 iceman1jag 0.44 % ** 0.44 % 2017-01-01
855 ricokaro 0.44 % ** 0.44 % 2017-01-01
856 sbates 0.44 % ** 0.43 % 2017-01-01
857 betterdeal 0.44 % ** 0.44 % 2017-01-01
858 Crewdog 0.44 % ** 0.44 % 2017-01-01
859 llealo53 0.43 % 0.43 % 2017-01-01
860 bohammer 0.42 % ** 0.42 % 2017-01-01
861 MohammadXX 0.41 % 0.41 % 2017-01-01
862 TSP4Soccer 0.41 % ** 0.41 % 2017-01-01
863 rytrucker 0.40 % ** 0.40 % 2017-01-01
864 Shakenbake * 0.39 % 0.39 % 2017-01-11
865 ward5820 0.38 % 0.38 % 2017-01-01
866 FordMan 0.38 % 0.38 % 2017-01-01
867 marine 0.38 % ** 0.38 % 2017-01-01
868 sagramore 0.38 % ** 0.38 % 2017-01-01
869 rudyd3 0.37 % ** 0.37 % 2017-01-01
870 CallMeIshmael 0.36 % ** 0.36 % 2017-01-01
871 IndianaJones 0.35 % 0.35 % 2017-01-01
872 gk10128 0.34 % 0.34 % 2017-01-01
873 1965Vintage * 0.34 % 0.34 % 2017-01-19
874 daze823 0.33 % 0.33 % 2017-01-01
875 Xilonen 0.32 % ** 0.32 % 2017-01-01
876 RushSlowly 0.30 % 0.30 % 2017-01-01
877 Knot_Guilty 0.29 % 0.29 % 2017-01-01
878 slowhand1964 0.29 % ** 0.29 % 2017-01-01
879 helpme 0.28 % ** 0.28 % 2017-01-01
880 userque 0.27 % 0.27 % 2017-01-01
881 EWB! 0.27 % 0.27 % 2017-01-01
882 qibovin 0.27 % ** 0.27 % 2017-01-01
883 nate4sho 0.25 % 0.25 % 2017-01-01
884 KRSSDSU 0.24 % 0.24 % 2017-01-01
885 Roymac28 0.24 % 0.24 % 2017-01-01
886 Tawny27 0.20 % 0.20 % 2017-01-01
887 RAM56 0.19 % 0.19 % 2017-01-01
888 CaptainVic 0.18 % ** 0.18 % 2017-01-01
889 tetonshasta * 0.17 % 0.17 % 2017-01-17
890 SMooreAce 0.17 % ** 0.17 % 2017-01-01
891 PessOptimist 0.16 % ** 0.16 % 2017-01-01
892 Cash_Money 0.15 % 0.15 % 2017-01-01
893 tucotsp 0.14 % 0.14 % 2017-01-01
894 Wasp49 0.14 % ** 0.14 % 2017-01-01
895 catsathome 0.13 % 0.13 % 2017-01-01
896 Bighorn6 0.13 % 0.13 % 2017-01-01
897 Bowfish 0.13 % 0.13 % 2017-01-01
898 markisrt4 0.13 % 0.13 % 2017-01-01
899 FMS_MITCH 0.13 % 0.13 % 2017-01-01
900 tmc1045 0.13 % 0.13 % 2017-01-01
Rank Username YTD Returns MTD Returns Start Date
901 triquasar 0.13 % 0.13 % 2017-01-01
902 Longstreet 0.13 % 0.13 % 2017-01-01
903 widdicom 0.13 % 0.13 % 2017-01-01
904 burrocrat 0.13 % 0.13 % 2017-01-01
905 burros-ark 0.13 % 0.13 % 2017-01-01
906 St3gz 0.13 % 0.13 % 2017-01-01
907 dwwright3rd 0.13 % 0.13 % 2017-01-01
908 shybear 0.13 % 0.13 % 2017-01-01
909 alevin 0.13 % 0.13 % 2017-01-01
910 spinachetr 0.13 % 0.13 % 2017-01-01
911 WhiskeyOne 0.13 % 0.13 % 2017-01-01
912 uf_rjeezy 0.13 % 0.13 % 2017-01-01
913 jonfresno 0.13 % 0.13 % 2017-01-01
914 SICK2MYSTOMACH 0.13 % 0.13 % 2017-01-01
915 Skyrider2020 0.13 % 0.13 % 2017-01-01
916 angus36 0.13 % 0.13 % 2017-01-01
917 Myemal 0.13 % 0.13 % 2017-01-01
918 kjb120169 0.13 % 0.13 % 2017-01-01
919 Anaconda 0.13 % 0.13 % 2017-01-01
920 Lostdawg 0.13 % 0.13 % 2017-01-01
921 Master_Key 0.13 % 0.13 % 2017-01-01
922 Badgers69 0.13 % 0.13 % 2017-01-01
923 MacDaddy 0.13 % 0.13 % 2017-01-01
924 G-fund 0.13 % 0.13 % 2017-01-01
925 phxmrc 0.13 % 0.13 % 2017-01-01
926 gman48 0.13 % 0.13 % 2017-01-01
927 Kaulana 0.13 % 0.13 % 2017-01-01
928 jbwalters 0.13 % 0.13 % 2017-01-01
929 NavyGirl88 0.13 % 0.13 % 2017-01-01
930 Meteorology 0.13 % 0.13 % 2017-01-01
931 Edna1890 0.13 % 0.13 % 2017-01-01
932 kobedog 0.13 % 0.13 % 2017-01-01
933 insocova 0.13 % 0.13 % 2017-01-01
934 BamaAF 0.13 % 0.13 % 2017-01-01
935 cawwilson 0.13 % 0.13 % 2017-01-01
936 alcusmc 0.13 % 0.13 % 2017-01-01
937 Sippeeboy 0.13 % 0.13 % 2017-01-01
938 ssdave 0.13 % 0.13 % 2017-01-01
939 vectorman 0.13 % 0.13 % 2017-01-01
940 CadMeUm 0.13 % 0.13 % 2017-01-01
941 VPX11 0.13 % 0.13 % 2017-01-01
942 DrFaustus 0.13 % 0.13 % 2017-01-01
943 jaybro61 0.13 % 0.13 % 2017-01-01
944 OBXTrader 0.13 % 0.13 % 2017-01-01
945 Groovin 0.13 % 0.13 % 2017-01-01
946 pecos_diamond 0.13 % 0.13 % 2017-01-01
947 confusedcookie 0.13 % 0.13 % 2017-01-01
948 Toughmudder 0.13 % 0.13 % 2017-01-01
949 spikeyball 0.13 % 0.13 % 2017-01-01
950 JEWELS1 0.13 % ** 0.13 % 2017-01-01
Rank Username YTD Returns MTD Returns Start Date
951 Nadeem 0.13 % ** 0.13 % 2017-01-01
952 coastalite 0.13 % ** 0.13 % 2017-01-01
953 DansTSP 0.13 % ** 0.13 % 2017-01-01
954 DouglasL 0.13 % ** 0.13 % 2017-01-01
955 tucahay 0.13 % ** 0.13 % 2017-01-01
956 bobgrem 0.13 % ** 0.13 % 2017-01-01
957 BorderBlade 0.13 % ** 0.13 % 2017-01-01
958 lpac 0.13 % ** 0.13 % 2017-01-01
959 cowboyaug4 0.13 % ** 0.13 % 2017-01-01
960 totallykool 0.13 % ** 0.13 % 2017-01-01
961 firstpersonpl 0.13 % ** 0.13 % 2017-01-01
962 kdr1 0.13 % ** 0.13 % 2017-01-01
963 NOLANDER 0.13 % ** 0.13 % 2017-01-01
964 Congee 0.13 % ** 0.13 % 2017-01-01
965 PKevin 0.13 % ** 0.13 % 2017-01-01
966 swordandcross 0.13 % ** 0.13 % 2017-01-01
967 dirtboy27 0.13 % ** 0.13 % 2017-01-01
968 Boomer 0.13 % ** 0.13 % 2017-01-01
969 edeckman 0.13 % ** 0.13 % 2017-01-01
970 kdraya 0.13 % ** 0.13 % 2017-01-01
971 mtom938 0.13 % ** 0.13 % 2017-01-01
972 WorkFE 0.13 % ** 0.13 % 2017-01-01
973 Mr_Shekels 0.13 % ** 0.13 % 2017-01-01
974 Zags_Cal 0.13 % ** 0.13 % 2017-01-01
975 ebikerz 0.13 % ** 0.13 % 2017-01-01
976 bmneveu 0.13 % ** 0.13 % 2017-01-01
977 kar_crazy 0.13 % ** 0.13 % 2017-01-01
978 JMoody 0.13 % ** 0.13 % 2017-01-01
979 Kimber411 0.13 % ** 0.13 % 2017-01-01
980 Heloguy 0.13 % ** 0.13 % 2017-01-01
981 stbondar 0.13 % ** 0.13 % 2017-01-01
982 TLeo96 0.13 % ** 0.13 % 2017-01-01
983 Stonehands 0.13 % ** 0.13 % 2017-01-01
984 quickfuze 0.13 % ** 0.13 % 2017-01-01
985 Skunked 0.13 % ** 0.13 % 2017-01-01
986 funkyhunky 0.13 % ** 0.13 % 2017-01-01
987 tink 0.13 % ** 0.13 % 2017-01-01
988 2manyirons 0.13 % ** 0.13 % 2017-01-01
989 Attila 0.13 % ** 0.13 % 2017-01-01
990 ChiTown 0.13 % ** 0.13 % 2017-01-01
991 Erie 0.13 % ** 0.13 % 2017-01-01
992 BB-Stacker 0.13 % ** 0.13 % 2017-01-01
993 Old_Town 0.13 % ** 0.13 % 2017-01-01
994 Snakebite 0.13 % ** 0.13 % 2017-01-01
995 nanamoma 0.13 % ** 0.13 % 2017-01-01
996 wasaki 0.13 % ** 0.13 % 2017-01-01
997 OKSHEMP 0.13 % ** 0.13 % 2017-01-01
998 totoylv 0.13 % ** 0.13 % 2017-01-01
999 zdcman 0.13 % ** 0.13 % 2017-01-01
1000 Greg 0.13 % ** 0.13 % 2017-01-01
Rank Username YTD Returns MTD Returns Start Date
1001 DeeBeeVA 0.13 % ** 0.13 % 2017-01-01
1002 Jerry 0.13 % ** 0.13 % 2017-01-01
1003 ccbadc 0.13 % ** 0.13 % 2017-01-01
1004 hummingbird 0.13 % ** 0.13 % 2017-01-01
1005 freechina 0.13 % ** 0.13 % 2017-01-01
1006 whitemingo 0.13 % ** 0.13 % 2017-01-01
1007 theo15 0.13 % ** 0.13 % 2017-01-01
1008 grandma 0.13 % ** 0.13 % 2017-01-01
1009 robo 0.13 % ** 0.13 % 2017-01-01
1010 JMajor 0.13 % ** 0.13 % 2017-01-01
1011 soyousay 0.13 % ** 0.13 % 2017-01-01
1012 polanece 0.13 % ** 0.13 % 2017-01-01
1013 trmill2 0.13 % ** 0.13 % 2017-01-01
1014 FlyingTurtle 0.13 % ** 0.13 % 2017-01-01
1015 gumshoe45 0.13 % ** 0.13 % 2017-01-01
1016 ProfitHitz 0.13 % ** 0.13 % 2017-01-01
1017 Golfdude 0.13 % ** 0.13 % 2017-01-01
1018 Aquaman 0.13 % ** 0.13 % 2017-01-01
1019 ChuckH 0.13 % ** 0.13 % 2017-01-01
1020 Jello 0.13 % ** 0.13 % 2017-01-01
1021 tinker1 0.13 % ** 0.13 % 2017-01-01
1022 korrianderson 0.13 % ** 0.13 % 2017-01-01
1023 roxiemoron 0.13 % ** 0.13 % 2017-01-01
1024 Deano64 0.13 % ** 0.13 % 2017-01-01
1025 HoustonJoe 0.13 % ** 0.13 % 2017-01-01
1026 kb9nvh 0.13 % ** 0.13 % 2017-01-01
1027 mochatater 0.13 % ** 0.13 % 2017-01-01
1028 mrbossman 0.13 % ** 0.13 % 2017-01-01
1029 Sepr8tr 0.13 % ** 0.13 % 2017-01-01
1030 woodsman 0.13 % ** 0.13 % 2017-01-01
1031 budfox 0.13 % ** 0.13 % 2017-01-01
1032 ExtremeWX 0.13 % ** 0.13 % 2017-01-01
1033 goldwell 0.13 % ** 0.13 % 2017-01-01
1034 mebrow5 0.13 % ** 0.13 % 2017-01-01
1035 minnow 0.13 % ** 0.13 % 2017-01-01
1036 mmk119 0.13 % ** 0.13 % 2017-01-01
1037 RATMONEY 0.13 % ** 0.13 % 2017-01-01
1038 beachpeach80 0.13 % ** 0.13 % 2017-01-01
1039 budmaster 0.13 % ** 0.13 % 2017-01-01
1040 sabri11 0.13 % ** 0.13 % 2017-01-01
1041 osseo 0.13 % ** 0.13 % 2017-01-01
1042 INSITES 0.13 % ** 0.13 % 2017-01-01
1043 Kite_Runner 0.13 % ** 0.13 % 2017-01-01
1044 Rotre52 0.13 % ** 0.13 % 2017-01-01
1045 anthonyc220 0.13 % ** 0.13 % 2017-01-01
1046 nsurf9 0.13 % ** 0.13 % 2017-01-01
1047 1peckcd4 0.13 % ** 0.13 % 2017-01-01
1048 2peaches2oranges 0.13 % ** 0.13 % 2017-01-01
1049 agrimm01 0.13 % ** 0.13 % 2017-01-01
1050 Bantley64 0.13 % ** 0.13 % 2017-01-01
Rank Username YTD Returns MTD Returns Start Date
1051 BayouTrader 0.13 % ** 0.13 % 2017-01-01
1052 bgoldman 0.13 % ** 0.13 % 2017-01-01
1053 blueskies 0.13 % ** 0.13 % 2017-01-01
1054 BULLonPARADE 0.13 % ** 0.13 % 2017-01-01
1055 BUSHIDO 0.13 % ** 0.13 % 2017-01-01
1056 Captaincuse 0.13 % ** 0.13 % 2017-01-01
1057 cedrus 0.13 % ** 0.13 % 2017-01-01
1058 cgooch 0.13 % ** 0.13 % 2017-01-01
1059 coerik1983 0.13 % ** 0.13 % 2017-01-01
1060 Concabar 0.13 % ** 0.13 % 2017-01-01
1061 Corepuncher 0.13 % ** 0.13 % 2017-01-01
1062 Cortez 0.13 % ** 0.13 % 2017-01-01
1063 crunchy_fo 0.13 % ** 0.13 % 2017-01-01
1064 DA44 0.13 % ** 0.13 % 2017-01-01
1065 Deadmeat99 0.13 % ** 0.13 % 2017-01-01
1066 DudeWayne 0.13 % ** 0.13 % 2017-01-01
1067 Ed_the_Fed 0.13 % ** 0.13 % 2017-01-01
1068 FishinFool 0.13 % ** 0.13 % 2017-01-01
1069 flipper180 0.13 % ** 0.13 % 2017-01-01
1070 foolsgold 0.13 % ** 0.13 % 2017-01-01
1071 GFCSorI 0.13 % ** 0.13 % 2017-01-01
1072 GoTech 0.13 % ** 0.13 % 2017-01-01
1073 GR-Turk 0.13 % ** 0.13 % 2017-01-01
1074 Gryle 0.13 % ** 0.13 % 2017-01-01
1075 heathda 0.13 % ** 0.13 % 2017-01-01
1076 heflijl 0.13 % ** 0.13 % 2017-01-01
1077 Highheaven184 0.13 % ** 0.13 % 2017-01-01
1078 hlgalang 0.13 % ** 0.13 % 2017-01-01
1079 huff324 0.13 % ** 0.13 % 2017-01-01
1080 idplakm 0.13 % ** 0.13 % 2017-01-01
1081 jlaufer89 0.13 % ** 0.13 % 2017-01-01
1082 joylynn 0.13 % ** 0.13 % 2017-01-01
1083 JPHAMM1994 0.13 % ** 0.13 % 2017-01-01
1084 kma18 0.13 % ** 0.13 % 2017-01-01
1085 Lthomas 0.13 % ** 0.13 % 2017-01-01
1086 lukepldo 0.13 % ** 0.13 % 2017-01-01
1087 MailmanSean 0.13 % ** 0.13 % 2017-01-01
1088 Maxumman 0.13 % ** 0.13 % 2017-01-01
1089 MXKENNY415 0.13 % ** 0.13 % 2017-01-01
1090 nmilluminati 0.13 % ** 0.13 % 2017-01-01
1091 noe93720 0.13 % ** 0.13 % 2017-01-01
1092 norberto95 0.13 % ** 0.13 % 2017-01-01
1093 POET 0.13 % ** 0.13 % 2017-01-01
1094 Quickstrike 0.13 % ** 0.13 % 2017-01-01
1095 Quinner82 0.13 % ** 0.13 % 2017-01-01
1096 robear 0.13 % ** 0.13 % 2017-01-01
1097 runningfool 0.13 % ** 0.13 % 2017-01-01
1098 sauer228 0.13 % ** 0.13 % 2017-01-01
1099 schofiml 0.13 % ** 0.13 % 2017-01-01
1100 scoker297 0.13 % ** 0.13 % 2017-01-01
Rank Username YTD Returns MTD Returns Start Date
1101 scott4401 0.13 % ** 0.13 % 2017-01-01
1102 sgammon 0.13 % ** 0.13 % 2017-01-01
1103 Show-me 0.13 % ** 0.13 % 2017-01-01
1104 smallzjohnson 0.13 % ** 0.13 % 2017-01-01
1105 sstasel 0.13 % ** 0.13 % 2017-01-01
1106 steelhead67 0.13 % ** 0.13 % 2017-01-01
1107 SteveOhh 0.13 % ** 0.13 % 2017-01-01
1108 tarchdeacon 0.13 % ** 0.13 % 2017-01-01
1109 TaterGator 0.13 % ** 0.13 % 2017-01-01
1110 texasrich 0.13 % ** 0.13 % 2017-01-01
1111 thegemp 0.13 % ** 0.13 % 2017-01-01
1112 timmy00578 0.13 % ** 0.13 % 2017-01-01
1113 TravelinTom 0.13 % ** 0.13 % 2017-01-01
1114 TSPGOD 0.13 % ** 0.13 % 2017-01-01
1115 tw9886 0.13 % ** 0.13 % 2017-01-01
1116 usm1811 0.13 % ** 0.13 % 2017-01-01
1117 vjhillsr 0.13 % ** 0.13 % 2017-01-01
1118 whitebear 0.13 % ** 0.13 % 2017-01-01
1119 WunderDog 0.13 % ** 0.13 % 2017-01-01
1120 yuriria 0.13 % ** 0.13 % 2017-01-01
1121 tip098 0.13 % ** 0.13 % 2017-01-01
1122 notbad 0.13 % ** 0.13 % 2017-01-01
1123 Dmen1218 0.13 % ** 0.13 % 2017-01-01
1124 rocker 0.13 % ** 0.13 % 2017-01-01
1125 borderj 0.13 % ** 0.13 % 2017-01-01
1126 wstuttle 0.13 % ** 0.13 % 2017-01-01
1127 inlineref 0.13 % ** 0.13 % 2017-01-01
1128 PF_chart_C 0.13 % ** 0.13 % 2017-01-01
1129 Sharkman 0.13 % ** 0.13 % 2017-01-01
1130 wealthbuilder 0.13 % ** 0.13 % 2017-01-01
1131 artie32 0.12 % 0.12 % 2017-01-01
1132 bayou4cj 0.12 % ** 0.12 % 2017-01-01
1133 SayWhat 0.12 % ** 0.12 % 2017-01-01
1134 Aitrus 0.12 % ** 0.12 % 2017-01-01
1135 EmoDx 0.11 % 0.11 % 2017-01-01
1136 jovialmadness 0.11 % ** 0.11 % 2017-01-01
1137 Elkhunter 0.11 % ** 0.11 % 2017-01-01
1138 Latonia64 0.11 % ** 0.11 % 2017-01-01
1139 williamr 0.11 % ** 0.11 % 2017-01-01
1140 Ship 0.11 % ** 0.11 % 2017-01-01
1141 truema666ot 0.11 % ** 0.11 % 2017-01-01
1142 Risky1 0.10 % 0.10 % 2017-01-01
1143 Risky11 0.10 % 0.10 % 2017-01-01
1144 parton1080 0.10 % ** 0.10 % 2017-01-01
1145 road_kill 0.09 % 0.09 % 2017-01-01
1146 korekaza 0.09 % 0.09 % 2017-01-01
1147 SteelSaving 0.09 % 0.09 % 2017-01-01
1148 hayman 0.09 % 0.09 % 2017-01-01
1149 NewBlackShirt 0.09 % ** 0.09 % 2017-01-01
1150 BigSnack 0.09 % ** 0.09 % 2017-01-01
Rank Username YTD Returns MTD Returns Start Date
1151 kdub 0.09 % ** 0.09 % 2017-01-01
1152 JaBlack 0.08 % 0.08 % 2017-01-01
1153 btreecej 0.08 % ** 0.08 % 2017-01-01
1154 Thunderhorse 0.08 % ** 0.08 % 2017-01-01
1155 Chorizo * 0.07 % 0.07 % 2017-01-09
1156 Bluewing00 0.07 % 0.07 % 2017-01-01
1157 anthony 0.07 % ** 0.07 % 2017-01-01
1158 Tmahal720 0.07 % ** 0.07 % 2017-01-01
1159 hindsnr 0.07 % ** 0.07 % 2017-01-01
1160 scooter0037 0.07 % ** 0.07 % 2017-01-01
1161 DaBears17 0.06 % 0.06 % 2017-01-01
1162 Lynx 0.05 % 0.05 % 2017-01-01
1163 Gahiker 0.05 % 0.05 % 2017-01-01
1164 cosinecrunchdown 0.05 % 0.05 % 2017-01-01
1165 EZ2K 0.05 % 0.05 % 2017-01-01
1166 puddy 0.05 % 0.05 % 2017-01-01
1167 peterson82 0.05 % 0.05 % 2017-01-01
1168 F-fund 0.05 % 0.05 % 2017-01-01
1169 Mr_Boooom 0.05 % 0.05 % 2017-01-01
1170 12squared 0.05 % 0.05 % 2017-01-01
1171 FireGal 0.05 % 0.05 % 2017-01-01
1172 Nordic 0.05 % 0.05 % 2017-01-01
1173 riptide17 0.05 % 0.05 % 2017-01-01
1174 Robvegas 0.05 % 0.05 % 2017-01-01
1175 skeeter 0.05 % 0.05 % 2017-01-01
1176 loco_lobo 0.05 % 0.05 % 2017-01-01
1177 trevor1953 0.05 % 0.05 % 2017-01-01
1178 MrVela 0.05 % 0.05 % 2017-01-01
1179 FireWeatherMet 0.05 % ** 0.05 % 2017-01-01
1180 Holden_Caufield 0.05 % ** 0.05 % 2017-01-01
1181 Muneco803 0.05 % ** 0.05 % 2017-01-01
1182 icemanknows 0.05 % ** 0.05 % 2017-01-01
1183 Titotsp 0.05 % ** 0.05 % 2017-01-01
1184 HALL 0.05 % ** 0.05 % 2017-01-01
1185 ContrarianJeff 0.05 % ** 0.05 % 2017-01-01
1186 NOVANole 0.05 % ** 0.05 % 2017-01-01
1187 nbialek2 0.05 % ** 0.05 % 2017-01-01
1188 JACKNAZ0506 0.05 % ** 0.05 % 2017-01-01
1189 Itchn2retire 0.05 % ** 0.05 % 2017-01-01
1190 pmcriaco 0.05 % ** 0.05 % 2017-01-01
1191 Litlbear62 0.05 % ** 0.05 % 2017-01-01
1192 MarkC 0.05 % ** 0.05 % 2017-01-01
1193 rjeeeeezy 0.05 % ** 0.05 % 2017-01-01
1194 milopro 0.05 % ** 0.05 % 2017-01-01
1195 cologal8 0.05 % ** 0.05 % 2017-01-01
1196 staticoverdub 0.05 % ** 0.05 % 2017-01-01
1197 samNme 0.05 % ** 0.05 % 2017-01-01
1198 ybnormal 0.05 % ** 0.05 % 2017-01-01
1199 keepnitreal 0.05 % ** 0.05 % 2017-01-01
1200 wayne 0.05 % ** 0.05 % 2017-01-01
Rank Username YTD Returns MTD Returns Start Date
1201 cenno 0.05 % ** 0.05 % 2017-01-01
1202 dprince 0.05 % ** 0.05 % 2017-01-01
1203 dibyadas 0.05 % ** 0.05 % 2017-01-01
1204 navyseal641 0.05 % ** 0.05 % 2017-01-01
1205 VincentP 0.05 % ** 0.05 % 2017-01-01
1206 Adventurer 0.05 % ** 0.05 % 2017-01-01
1207 azfreed5 0.05 % ** 0.05 % 2017-01-01
1208 Colegan 0.05 % ** 0.05 % 2017-01-01
1209 DINK 0.05 % ** 0.05 % 2017-01-01
1210 DonStar 0.05 % ** 0.05 % 2017-01-01
1211 elitesauce 0.05 % ** 0.05 % 2017-01-01
1212 hoodoo 0.05 % ** 0.05 % 2017-01-01
1213 huskerchad 0.05 % ** 0.05 % 2017-01-01
1214 JD797 0.05 % ** 0.05 % 2017-01-01
1215 Labsroc01 0.05 % ** 0.05 % 2017-01-01
1216 Luscombesfly 0.05 % ** 0.05 % 2017-01-01
1217 masedog81 0.05 % ** 0.05 % 2017-01-01
1218 mpdcop 0.05 % ** 0.05 % 2017-01-01
1219 nab0325 0.05 % ** 0.05 % 2017-01-01
1220 pmelchman 0.05 % ** 0.05 % 2017-01-01
1221 SS4183 0.05 % ** 0.05 % 2017-01-01
1222 TSPNotley 0.05 % ** 0.05 % 2017-01-01
1223 vector4tfc 0.05 % ** 0.05 % 2017-01-01
1224 yeelah1 0.05 % ** 0.05 % 2017-01-01
1225 slickcheech 0.05 % ** 0.05 % 2017-01-01
1226 kooke 0.05 % ** 0.05 % 2017-01-01
1227 not_too_shabby 0.05 % ** 0.05 % 2017-01-01
1228 DaddyTin 0.04 % 0.04 % 2017-01-01
1229 cpowith4 0.02 % 0.02 % 2017-01-01
1230 TMUFR 0.01 % 0.01 % 2017-01-01
1231 spapadopoulos 0.01 % 0.01 % 2017-01-01
1232 gbloeser * 0.00 % 0.00 % 2017-01-20
1233 OldGoat * 0.00 % 0.00 % 2017-01-11
1234 csstovall09 0.00 % ** 0.00 % 2017-01-01
1235 Mlbplayer86 * -0.02 % -0.02 % 2017-01-17
1236 Scrappy -0.03 % -0.03 % 2017-01-01
1237 Blarney -0.04 % -0.04 % 2017-01-01
1238 TwoYrs2Go -0.04 % -0.04 % 2017-01-01
1239 lsbeachwx -0.06 % -0.06 % 2017-01-01
1240 Skorcher -0.10 % -0.10 % 2017-01-01
1241 Mauser -0.10 % -0.10 % 2017-01-01
1242 SCHAGAN -0.10 % -0.10 % 2017-01-01
1243 Mustang2008 * -0.14 % -0.14 % 2017-01-09
1244 Ozhusker * -0.14 % -0.14 % 2017-01-06
1245 Udflyer01 -0.16 % -0.16 % 2017-01-01
1246 olddb * -0.30 % -0.30 % 2017-01-04
1247 ROCKMAXX -0.30 % -0.30 % 2017-01-01
1248 KinoFish * -0.37 % -0.37 % 2017-01-05
1249 sanfran814 * -0.42 % -0.42 % 2017-01-05
1250 endoskell -0.43 % -0.43 % 2017-01-01
Rank Username YTD Returns MTD Returns Start Date
1251 Tsunami -0.43 % -0.43 % 2017-01-01
1252 dillpickle * -0.48 % -0.48 % 2017-01-13
1253 bhep * -0.69 % -0.69 % 2017-01-05
1254 Pickles -0.94 % -0.94 % 2017-01-01
1255 jrhutch -1.01 % -1.01 % 2017-01-01
1256 Jason.Z -1.05 % -1.05 % 2017-01-01
1257 bighurd51 -1.05 % -1.05 % 2017-01-01
1258 lucy -1.38 % -1.38 % 2017-01-01
* = Partial Year Return ** = Idle Account - Not eligible for monthly prize
- Hidden = User has not logged in for at least 180 days.

The AutoTracker is a contest that measures the return of your investment decisions as compared to other members' returns.  Because deposits can readjust your allocations, your actual TSP account returns will vary.  To track your returns more accurately, try using one of our returns spreadsheets.
Main Menu | My Allocation | My Records | IFT of the day | Members Records | Members Standings | Returns Analysis | Ocean's List | Fund prices | Logout

This tracking system is for entertainment purposes only and is not affiliated with the official Thrift Savings Plan website, www.tsp.gov. It free to use by our site members, however we reserved the right to terminate any member's account without prior notice. You will need to do your own transfers through the www.tsp.gov website for the actual transfer. This tracking system is the IFT allocation reporting system for TSPtalk.com members only and will not impact your actual Thrift Savings Plan account.
The TSP Talk AutoTracker was designed, developed, and contributed to TSP Talk by our own member, ocean.
 
Copyright 2003 - 2017 Buy Low Sell High, Inc.
TSPtalk.com®: is a trademark of Buy Low Sell High, Inc.
All Rights Reserved
Buy Low Sell High, Inc., P.O. Box 13213, Ogden UT 84412